Aérodrome :
LOGIN :

S'inscrire | Disclaimer

   EN    FR    IT 

 










Légende :    VFR   VFR Marginal   IFR   IFR Intensif   IFR Très Intensif
Visi : 
Plafond : 
>= 8 km
>= 3000ft
5 à 8 km
1000 à 3000 ft
1500m à 5 km
500 à 1000 ft
800 à 1500m
200 à 500 ft
< 800m
< 200 ft
Symboles :   Orages  Brouillard  Fortes neiges  Fortes précipitations  Vent > 20 kt
SIGMETs :   Divers  Orages  Givrage  Turbulence  Onde Orograph.  Cendres Volcan.






- Altitude de l'aérodrome : 755 ft
- Code IATA : DRS


EDDC - Dresden Klotzsche

DERNIER METAR :
  • 291920Z AUTO 24009KT 9999 OVC022 M01/M05 Q1021 NOSIG

METARs EXPIRÉS :
  • 291850Z AUTO 25008KT 210V280 9999 OVC024 M01/M05 Q1021 NOSIG
  • 291820Z AUTO 24008KT 200V270 9999 OVC025 M01/M05 Q1022 NOSIG
  • 291750Z AUTO 24008KT 9999 OVC026 M01/M04 Q1022 NOSIG
  • 291720Z AUTO 24008KT 210V280 9999 OVC027 M01/M04 Q1022 NOSIG

TAF TAF EDDC
Valide du 29 à 18h jusqu'au 30 à 18h UTC


291700Z 2918/3018 23010KT 9999 BKN025
BECMG 3003/3006 25015G25KT
TEMPO 3006/3011 2500 SNRA BKN010
PROB30
TEMPO 3008/3010 1000 SN BKN005
TEMPO 3011/3018 27020G35KT 4000 SHRAGS BKN015CB



MET'MAP, la Météo Aéronautique d'un coup d'oeil ! - Copyright ORBIFLY Décembre 2007 - Disclaimer

ORBIFLY MET'MAP TEAM :

Programmation & Développement : Alexandra Zaïnal
Sur une idée originale de : Baudouin d'Aumeries
Soutien technique & logistique : Manuel Goepfert
Assistance : Marc-Olivier Méhu




SOURCES & CREDITS :

   NOAA